Mandarin Grace — 9V8352 — position and weather

sailwx.info

Track history (hours):
 
Tides and Currents Weather Stations Pressure Air Temp Water Temp Dewpoint Dewpoint Depression Visibility Wind Speed Wind Dir Waves Ship Positions

Mandarin Grace

Last reported at 2014-Oct-20 16:04 UTC. Time now 2014-Oct-20 21:20 UTC.
Position N 36°46' E 013°26'.

Length 190 m; draft 6.6 m.

Type: Cargo ship. MMSI: 563862000.

Date/timePositionNaut miles runAvg speedWind from/ knotsBaromVisibWave heightAir tempDewpointWater temp
2014-Oct-20 16:04N 36°46' E 013°26'913.2
2014-Oct-20 15:25N 36°43' E 013°36'1213.1
2014-Oct-20 14:32N 36°38' E 013°50'1313.1
2014-Oct-20 13:34N 36°33' E 014°04'1312.9
2014-Oct-20 12:33N 36°27' E 014°19'1312.8
2014-Oct-20 11:34N 36°27' E 014°34'  
2014-Oct-11 18:30N 36°27' E 015°10'2812.8
2014-Oct-11 16:20N 36°27' E 014°36'1212.7
2014-Oct-11 15:26N 36°27' E 014°21'1312.5
2014-Oct-11 14:24N 36°30' E 014°06'1112.4
2014-Oct-11 13:30N 36°34' E 013°53'1212.3
2014-Oct-11 12:34N 36°38' E 013°40'1212.0
2014-Oct-11 11:34N 36°42' E 013°25'1211.7
2014-Oct-11 10:33N 36°46' E 013°11'1211.8
2014-Oct-11 09:32N 36°49' E 012°57'1211.8
2014-Oct-11 08:32N 36°53' E 012°43'1311.9
2014-Oct-11 07:28N 36°57' E 012°28'1511.9
2014-Oct-11 06:13N 37°02' E 012°11'8011.9
2014-Oct-10 23:32N 37°31' E 010°37'1212.1
2014-Oct-10 22:33N 37°33' E 010°22'1212.4
2014-Oct-10 21:33N 37°33' E 010°07'1212.4
2014-Oct-10 20:34N 37°34' E 009°51'1312.8
2014-Oct-10 19:34N 37°35' E 009°35'1313.1
2014-Oct-10 18:33N 37°36' E 009°19'1513.5
2014-Oct-10 17:27N 37°38' E 008°60'1212.7
2014-Oct-10 16:33N 37°37' E 008°45'  
Track history (hours):
 
Tides and Currents Weather Stations Pressure Air Temp Water Temp Dewpoint Dewpoint Depression Visibility Wind Speed Wind Dir Waves Ship Positions

Mandarin Grace

Last reported at 2014-Oct-20 16:04 UTC. Time now 2014-Oct-20 21:20 UTC.
Position N 36°46' E 013°26'.

Length 190 m; draft 6.6 m.

Type: Cargo ship. MMSI: 563862000.

Date/timePositionNaut miles runAvg speedWind from/ knotsBaromVisibWave heightAir tempDewpointWater temp
2014-Oct-20 16:04N 36°46' E 013°26'913.2
2014-Oct-20 15:25N 36°43' E 013°36'1213.1
2014-Oct-20 14:32N 36°38' E 013°50'1313.1
2014-Oct-20 13:34N 36°33' E 014°04'1312.9
2014-Oct-20 12:33N 36°27' E 014°19'1312.8
2014-Oct-20 11:34N 36°27' E 014°34'  
2014-Oct-11 18:30N 36°27' E 015°10'2812.8
2014-Oct-11 16:20N 36°27' E 014°36'1212.7
2014-Oct-11 15:26N 36°27' E 014°21'1312.5
2014-Oct-11 14:24N 36°30' E 014°06'1112.4
2014-Oct-11 13:30N 36°34' E 013°53'1212.3
2014-Oct-11 12:34N 36°38' E 013°40'1212.0
2014-Oct-11 11:34N 36°42' E 013°25'1211.7
2014-Oct-11 10:33N 36°46' E 013°11'1211.8
2014-Oct-11 09:32N 36°49' E 012°57'1211.8
2014-Oct-11 08:32N 36°53' E 012°43'1311.9
2014-Oct-11 07:28N 36°57' E 012°28'1511.9
2014-Oct-11 06:13N 37°02' E 012°11'8011.9
2014-Oct-10 23:32N 37°31' E 010°37'1212.1
2014-Oct-10 22:33N 37°33' E 010°22'1212.4
2014-Oct-10 21:33N 37°33' E 010°07'1212.4
2014-Oct-10 20:34N 37°34' E 009°51'1312.8
2014-Oct-10 19:34N 37°35' E 009°35'1313.1
2014-Oct-10 18:33N 37°36' E 009°19'1513.5
2014-Oct-10 17:27N 37°38' E 008°60'1212.7
2014-Oct-10 16:33N 37°37' E 008°45'  

Dump ship's entire track history